createdAt,value
2023-01-18T00:04:43.252Z,84.38
2023-01-18T00:09:35.306Z,84.70
2023-01-18T00:14:25.849Z,84.83
2023-01-18T00:19:19.052Z,84.82
2023-01-18T00:24:12.319Z,84.80
2023-01-18T00:29:05.895Z,87.22
2023-01-18T00:34:00.527Z,88.12
2023-01-18T00:39:01.984Z,86.36
2023-01-18T00:43:53.617Z,86.95
2023-01-18T00:48:48.649Z,88.04
2023-01-18T00:53:41.490Z,88.47
2023-01-18T00:58:35.274Z,88.34
2023-01-18T01:03:25.769Z,88.46
2023-01-18T01:08:21.126Z,87.01
2023-01-18T01:13:26.868Z,88.33
2023-01-18T01:18:35.873Z,88.83
2023-01-18T01:23:41.780Z,86.19
2023-01-18T01:28:35.353Z,88.05
2023-01-18T01:33:27.928Z,88.76
2023-01-18T01:38:18.926Z,88.80
2023-01-18T01:43:17.772Z,88.45
2023-01-18T01:48:11.778Z,88.46
2023-01-18T01:53:07.415Z,89.37
2023-01-18T01:58:04.556Z,88.89
2023-01-18T02:02:59.991Z,88.41
2023-01-18T02:07:52.850Z,88.92
2023-01-18T02:12:50.363Z,89.14
2023-01-18T02:18:08.698Z,89.53
2023-01-18T02:23:35.673Z,88.54
2023-01-18T02:28:38.761Z,88.80
2023-01-18T02:33:37.025Z,89.44
2023-01-18T02:38:34.037Z,89.70
2023-01-18T02:43:42.845Z,89.26
2023-01-18T02:48:39.323Z,89.19
2023-01-18T02:53:31.350Z,88.88
2023-01-18T02:58:26.172Z,89.64
2023-01-18T03:03:23.186Z,89.30
2023-01-18T03:08:22.458Z,89.35
2023-01-18T03:13:20.756Z,89.30
2023-01-18T03:18:19.268Z,89.57
2023-01-18T03:23:32.153Z,87.83
2023-01-18T03:28:39.261Z,87.06
2023-01-18T03:33:49.502Z,86.48
2023-01-18T03:38:45.911Z,86.51
2023-01-18T03:43:41.280Z,86.49
2023-01-18T03:48:43.847Z,86.52
2023-01-18T03:53:54.778Z,86.36
2023-01-18T03:58:55.829Z,86.85
2023-01-18T04:03:48.210Z,86.79
2023-01-18T04:08:45.145Z,86.70
2023-01-18T04:13:39.717Z,86.39
2023-01-18T04:18:32.775Z,86.38
2023-01-18T04:23:24.406Z,86.13
2023-01-18T04:28:14.419Z,86.23
2023-01-18T04:33:04.770Z,85.92
2023-01-18T04:38:01.959Z,86.11
2023-01-18T04:42:58.765Z,86.28
2023-01-18T04:47:52.795Z,86.13
2023-01-18T04:52:50.079Z,86.35
2023-01-18T04:57:47.807Z,86.15
2023-01-18T05:02:41.391Z,85.63
2023-01-18T05:07:34.383Z,85.61
2023-01-18T05:12:24.214Z,85.53
2023-01-18T05:17:16.904Z,85.83
2023-01-18T05:22:09.316Z,85.63
2023-01-18T05:27:01.391Z,85.82
2023-01-18T05:31:55.042Z,85.96
2023-01-18T05:36:52.185Z,86.00
2023-01-18T05:41:45.498Z,85.71
2023-01-18T05:46:36.940Z,88.71
2023-01-18T05:51:34.850Z,89.47
2023-01-18T05:56:46.388Z,90.26
2023-01-18T06:01:36.506Z,89.46
2023-01-18T06:06:40.488Z,87.54
2023-01-18T06:11:35.887Z,87.18
2023-01-18T06:16:56.604Z,88.16
2023-01-18T06:21:48.792Z,87.15
2023-01-18T06:26:38.662Z,87.21
2023-01-18T06:31:29.826Z,87.41
2023-01-18T06:36:31.973Z,87.33
2023-01-18T06:41:34.058Z,87.04
2023-01-18T06:46:29.684Z,87.25
2023-01-18T06:51:26.875Z,87.19
2023-01-18T06:56:26.377Z,86.85
2023-01-18T07:01:21.885Z,87.38
2023-01-18T07:06:11.926Z,87.77
2023-01-18T07:11:15.499Z,87.96
2023-01-18T07:16:07.865Z,87.16
2023-01-18T07:21:14.347Z,87.34
2023-01-18T07:26:20.870Z,87.39
2023-01-18T07:31:12.344Z,87.16
2023-01-18T07:36:02.257Z,87.16
2023-01-18T07:40:52.675Z,87.39
2023-01-18T07:45:46.372Z,87.58
2023-01-18T07:50:44.377Z,87.56
2023-01-18T07:55:49.355Z,87.66
2023-01-18T08:00:41.822Z,87.47
2023-01-18T08:05:45.535Z,88.92
2023-01-18T08:10:41.335Z,87.86
2023-01-18T08:15:42.052Z,88.12
2023-01-18T08:20:47.106Z,87.93
2023-01-18T08:25:41.878Z,88.32
2023-01-18T08:30:36.905Z,88.26
2023-01-18T08:35:33.815Z,97.44
2023-01-18T08:40:33.955Z,99.67
2023-01-18T08:45:27.080Z,93.56
2023-01-18T08:50:20.957Z,92.39
2023-01-18T08:55:18.697Z,92.01
2023-01-18T09:00:30.368Z,91.91
2023-01-18T09:05:25.223Z,91.02
2023-01-18T09:10:17.176Z,91.33
2023-01-18T09:15:15.190Z,90.39
2023-01-18T09:20:09.724Z,89.85
2023-01-18T09:25:00.892Z,90.21
2023-01-18T09:29:58.954Z,89.56
2023-01-18T09:34:53.235Z,89.69
2023-01-18T09:39:51.929Z,89.42
2023-01-18T09:44:48.729Z,89.01
2023-01-18T09:49:55.514Z,89.03
2023-01-18T09:54:55.823Z,89.59
2023-01-18T09:59:51.997Z,89.45
2023-01-18T10:04:46.564Z,88.17
2023-01-18T10:09:37.912Z,88.73
2023-01-18T10:14:39.309Z,86.77
2023-01-18T10:19:35.531Z,86.85
2023-01-18T10:24:38.040Z,84.88
2023-01-18T10:29:37.858Z,79.19
2023-01-18T10:35:03.886Z,80.83
2023-01-18T10:39:56.248Z,81.34
2023-01-18T10:44:51.419Z,83.25
2023-01-18T10:49:45.290Z,81.14
2023-01-18T10:54:40.582Z,80.46
2023-01-18T10:59:38.489Z,82.98
2023-01-18T11:04:32.052Z,82.19
2023-01-18T11:09:40.843Z,79.75
2023-01-18T11:14:35.369Z,82.42
2023-01-18T11:19:29.505Z,80.97
2023-01-18T11:24:30.396Z,81.21
2023-01-18T11:29:25.716Z,81.38
2023-01-18T11:34:29.027Z,81.94
2023-01-18T11:39:33.213Z,79.58
2023-01-18T11:44:27.949Z,81.01
2023-01-18T11:49:30.720Z,82.62
2023-01-18T11:54:29.000Z,82.72
2023-01-18T11:59:31.838Z,79.14
2023-01-18T12:04:40.441Z,81.67
2023-01-18T12:09:43.980Z,78.10
2023-01-18T12:14:53.083Z,77.48
2023-01-18T12:20:00.997Z,80.56
2023-01-18T12:24:59.975Z,82.59
2023-01-18T12:30:15.843Z,85.29
2023-01-18T12:35:25.115Z,83.57
2023-01-18T12:40:35.538Z,84.27
2023-01-18T12:45:54.222Z,83.36
2023-01-18T12:50:57.106Z,83.96
2023-01-18T12:55:57.010Z,81.87
2023-01-18T13:01:06.030Z,83.68
2023-01-18T13:06:15.702Z,85.40
2023-01-18T13:11:10.169Z,84.22
2023-01-18T13:16:18.191Z,85.38
2023-01-18T13:21:32.650Z,84.28
2023-01-18T13:26:34.228Z,85.17
2023-01-18T13:31:55.462Z,86.08
2023-01-18T13:37:15.032Z,85.89
2023-01-18T13:42:11.923Z,85.81
2023-01-18T13:47:34.125Z,83.80
2023-01-18T13:52:44.196Z,84.85
2023-01-18T13:57:37.833Z,85.09
2023-01-18T14:02:35.028Z,85.78
2023-01-18T14:07:28.228Z,86.24
2023-01-18T14:12:45.652Z,85.75
2023-01-18T14:17:53.434Z,84.78
2023-01-18T14:22:57.238Z,84.37
2023-01-18T14:27:59.648Z,87.10
2023-01-18T14:32:59.656Z,87.65
2023-01-18T14:38:16.901Z,87.75
2023-01-18T14:43:18.275Z,87.46
2023-01-18T14:48:23.517Z,88.01
2023-01-18T14:53:19.069Z,88.43
2023-01-18T14:58:26.895Z,88.35
2023-01-18T15:03:24.076Z,88.92
2023-01-18T15:08:18.180Z,89.71
2023-01-18T15:13:09.855Z,86.39
2023-01-18T15:18:15.339Z,85.55
2023-01-18T15:23:08.693Z,85.81
2023-01-18T15:28:11.901Z,85.16
2023-01-18T15:33:15.317Z,88.40
2023-01-18T15:38:05.256Z,88.63
2023-01-18T15:43:05.000Z,88.43
2023-01-18T15:48:07.890Z,89.28
2023-01-18T15:53:19.319Z,88.79
2023-01-18T15:58:16.601Z,88.82
2023-01-18T16:03:23.863Z,88.86
2023-01-18T16:08:24.020Z,89.63
2023-01-18T16:13:34.547Z,89.97
2023-01-18T16:19:48.504Z,90.79
2023-01-18T16:24:41.055Z,91.09
2023-01-18T16:29:33.377Z,91.18
2023-01-18T16:34:24.881Z,91.41
2023-01-18T16:39:20.548Z,90.21
2023-01-18T16:44:13.847Z,87.22
2023-01-18T16:49:11.287Z,86.52
2023-01-18T16:54:01.729Z,87.13
2023-01-18T16:58:56.129Z,89.08
2023-01-18T17:03:47.210Z,89.35
2023-01-18T17:08:39.838Z,87.36
2023-01-18T17:13:30.925Z,88.21
2023-01-18T17:18:29.334Z,87.08
2023-01-18T17:23:22.326Z,86.75
2023-01-18T17:28:19.147Z,86.27
2023-01-18T17:33:16.191Z,86.32
2023-01-18T17:38:22.076Z,88.95
2023-01-18T17:43:17.277Z,87.76
2023-01-18T17:48:12.721Z,87.80
2023-01-18T17:53:08.842Z,87.18
2023-01-18T17:58:00.292Z,87.02
2023-01-18T18:02:54.209Z,88.18
2023-01-18T18:07:45.463Z,87.54
2023-01-18T18:12:40.676Z,87.35
2023-01-18T18:17:32.355Z,86.92
2023-01-18T18:22:23.331Z,88.00
2023-01-18T18:27:17.548Z,87.26
2023-01-18T18:32:12.328Z,87.91
2023-01-18T18:37:04.252Z,91.08
2023-01-18T18:41:54.958Z,91.03
2023-01-18T18:46:46.194Z,92.06
2023-01-18T18:51:39.443Z,94.26
2023-01-18T18:56:29.379Z,93.32
2023-01-18T19:01:22.876Z,94.36
2023-01-18T19:06:13.772Z,94.48
2023-01-18T19:11:08.860Z,94.25
2023-01-18T19:16:01.836Z,93.82
2023-01-18T19:20:53.575Z,93.69
2023-01-18T19:25:47.424Z,93.68
2023-01-18T19:30:44.219Z,95.67
2023-01-18T19:35:36.383Z,95.75
2023-01-18T19:40:36.682Z,93.94
2023-01-18T19:45:35.342Z,95.15
2023-01-18T19:50:33.050Z,95.38
2023-01-18T19:55:23.438Z,95.52
2023-01-18T20:00:19.434Z,95.05
2023-01-18T20:05:11.346Z,95.11
2023-01-18T20:10:21.035Z,94.22
2023-01-18T20:15:12.222Z,95.59
2023-01-18T20:20:03.682Z,93.59
2023-01-18T20:24:57.493Z,93.73
2023-01-18T20:29:55.857Z,92.67
2023-01-18T20:34:47.400Z,95.37
2023-01-18T20:39:38.387Z,94.37
2023-01-18T20:44:32.524Z,93.95
2023-01-18T20:49:38.032Z,95.29
2023-01-18T20:54:34.781Z,96.15
2023-01-18T20:59:26.548Z,94.98
2023-01-18T21:04:21.540Z,92.62
2023-01-18T21:09:16.580Z,91.28
2023-01-18T21:14:11.227Z,92.71
2023-01-18T21:19:13.795Z,91.69
2023-01-18T21:24:04.409Z,93.41
2023-01-18T21:28:57.801Z,92.26
2023-01-18T21:33:48.747Z,92.09
2023-01-18T21:38:40.727Z,93.20
2023-01-18T21:43:44.077Z,92.44
2023-01-18T21:48:38.185Z,91.45
2023-01-18T21:53:40.780Z,93.09
2023-01-18T21:58:43.159Z,93.36
2023-01-18T22:03:34.036Z,93.36
2023-01-18T22:08:27.144Z,93.98
2023-01-18T22:13:17.851Z,95.17
2023-01-18T22:18:08.483Z,94.88
2023-01-18T22:22:59.136Z,94.03
2023-01-18T22:27:56.896Z,92.70
2023-01-18T22:32:50.135Z,93.17
2023-01-18T22:37:40.442Z,92.74
2023-01-18T22:42:32.382Z,91.07
2023-01-18T22:47:25.940Z,92.41
2023-01-18T22:52:15.849Z,92.60
2023-01-18T22:57:08.352Z,93.49
2023-01-18T23:01:58.235Z,93.63
2023-01-18T23:06:55.556Z,91.52
2023-01-18T23:11:46.142Z,92.62
2023-01-18T23:16:48.505Z,93.11
2023-01-18T23:21:39.620Z,92.51
2023-01-18T23:26:34.001Z,91.76
2023-01-18T23:31:25.486Z,90.84
2023-01-18T23:36:16.228Z,92.48
2023-01-18T23:41:20.509Z,91.22
2023-01-18T23:46:25.920Z,92.02
2023-01-18T23:51:28.792Z,92.90
2023-01-18T23:56:19.874Z,91.49
